Time;durP1;ratioP1;P1;durP2;ratioP2;P2;SDS_P1;SDS_P2;PMS_P1;PMS_P2;Temp;Humidity;BMP_temperature;BMP_pressure;BME280_temperature;BME280_humidity;BME280_pressure;Samples;Min_cycle;Max_cycle;Signal;HPM_P1;HPM_P2
2022/04/22 00:01:04;;;;;;;13.15;6.90;;;;;;;9.51;73.45;100993.41;5048577;28;20052;-69
2022/04/22 00:03:30;;;;;;;13.43;7.50;;;;;;;9.52;73.50;100992.47;5043487;28;20052;-68
2022/04/22 00:05:55;;;;;;;9.88;6.45;;;;;;;9.44;73.66;101000.91;5044604;28;20044;-67
2022/04/22 00:08:22;;;;;;;15.73;7.90;;;;;;;9.48;73.79;100998.91;5064391;28;20032;-68
2022/04/22 00:13:32;;;;;;;12.65;6.95;;;;;;;9.46;73.91;100987.50;5049191;28;20045;-68
2022/04/22 00:15:57;;;;;;;12.70;7.13;;;;;;;9.49;73.67;100987.34;5063211;28;20036;-68
2022/04/22 00:18:23;;;;;;;12.98;7.47;;;;;;;9.52;73.50;100988.00;5046522;28;20497;-68
2022/04/22 00:20:48;;;;;;;11.00;6.80;;;;;;;9.47;73.91;100982.06;5065617;28;20125;-68
2022/04/22 00:23:14;;;;;;;11.48;7.15;;;;;;;9.32;74.19;100978.47;5063115;28;20041;-68
2022/04/22 00:25:39;;;;;;;13.82;7.28;;;;;;;9.24;74.87;100980.72;5062815;28;20036;-67
2022/04/22 00:28:05;;;;;;;14.30;7.38;;;;;;;9.12;75.24;100977.88;5062468;28;20045;-68
2022/04/22 00:30:31;;;;;;;14.68;8.23;;;;;;;9.06;75.36;100979.06;5063492;28;20072;-68
2022/04/22 00:32:56;;;;;;;12.80;7.00;;;;;;;9.14;75.07;100976.00;5064180;28;20036;-68
2022/04/22 00:35:22;;;;;;;12.18;6.88;;;;;;;9.02;75.65;100982.81;5063157;28;20504;-70
2022/04/22 00:37:49;;;;;;;12.95;7.65;;;;;;;9.05;75.36;100975.56;5064639;28;20040;-68
2022/04/22 00:40:15;;;;;;;13.10;8.15;;;;;;;8.95;75.74;100979.66;5065604;28;20132;-68
2022/04/22 00:42:41;;;;;;;12.25;7.30;;;;;;;8.90;75.74;100978.19;5066692;28;20045;-68
2022/04/22 00:45:07;;;;;;;11.52;6.68;;;;;;;8.89;76.15;100976.47;5065049;28;20066;-68
2022/04/22 00:47:33;;;;;;;14.45;7.55;;;;;;;8.88;76.01;100974.75;5064261;28;20044;-68
2022/04/22 00:49:58;;;;;;;15.40;7.93;;;;;;;8.79;76.46;100969.00;5064361;28;20521;-68
2022/04/22 00:52:24;;;;;;;13.15;7.80;;;;;;;8.75;76.68;100967.44;5063047;28;20047;-68
2022/04/22 00:54:50;;;;;;;10.70;7.32;;;;;;;8.72;76.74;100967.59;5060944;28;20036;-67
2022/04/22 00:57:18;;;;;;;15.77;7.85;;;;;;;8.63;77.24;100957.44;5062441;28;20036;-68
2022/04/22 00:59:44;;;;;;;12.15;7.15;;;;;;;8.55;77.63;100952.56;5063654;28;20040;-68
2022/04/22 01:02:09;;;;;;;13.02;7.38;;;;;;;8.54;77.92;100952.66;5061976;28;20063;-68
2022/04/22 01:10:06;;;;;;;14.65;7.43;;;;;;;8.36;78.45;100933.19;5023621;28;20069;-68
2022/04/22 01:12:32;;;;;;;13.77;7.50;;;;;;;8.35;78.35;100933.25;5041838;28;20044;-68
2022/04/22 01:14:58;;;;;;;14.32;7.78;;;;;;;8.31;78.04;100935.22;5022903;28;20087;-68
2022/04/22 01:17:25;;;;;;;15.73;8.55;;;;;;;8.19;78.52;100939.38;5041889;28;20128;-68
2022/04/22 01:19:50;;;;;;;17.08;8.80;;;;;;;8.10;79.00;100931.03;5042053;28;20037;-69
2022/04/22 01:22:16;;;;;;;16.15;8.98;;;;;;;8.08;78.81;100927.56;5025028;28;20374;-68
2022/04/22 01:24:42;;;;;;;14.93;7.32;;;;;;;8.13;78.68;100936.16;5041483;28;20041;-68
2022/04/22 01:27:10;;;;;;;12.93;7.85;;;;;;;8.07;79.18;100928.50;5039741;28;20489;-68
2022/04/22 01:29:35;;;;;;;14.93;7.85;;;;;;;8.03;78.78;100922.50;5039529;28;20049;-68
2022/04/22 01:32:01;;;;;;;13.32;7.63;;;;;;;8.00;79.12;100917.34;5038989;28;20079;-68
2022/04/22 01:34:27;;;;;;;14.15;7.57;;;;;;;7.95;79.94;100920.25;5020782;28;20091;-68
2022/04/22 01:36:53;;;;;;;13.18;7.85;;;;;;;8.00;79.71;100909.41;5039620;28;20048;-67
2022/04/22 01:39:18;;;;;;;14.88;7.95;;;;;;;7.95;79.35;100906.13;5052276;28;20045;-67
2022/04/22 01:41:43;;;;;;;14.85;8.20;;;;;;;8.10;78.83;100915.09;5061148;28;20048;-68
2022/04/22 01:44:09;;;;;;;15.85;8.35;;;;;;;8.04;79.25;100910.97;5061711;28;20131;-68
2022/04/22 01:46:35;;;;;;;15.73;8.32;;;;;;;8.04;79.04;100908.31;5062686;28;20762;-68
2022/04/22 01:49:02;;;;;;;14.20;7.65;;;;;;;7.99;79.62;100905.88;5061818;28;20040;-68
2022/04/22 01:51:27;;;;;;;14.85;7.70;;;;;;;7.87;79.60;100910.94;5062663;28;20036;-68
2022/04/22 01:53:54;;;;;;;14.70;8.10;;;;;;;8.00;79.30;100912.03;5061438;28;20558;-68
2022/04/22 01:56:20;;;;;;;13.07;7.43;;;;;;;7.98;79.56;100911.25;5043729;28;20068;-68
2022/04/22 01:58:45;;;;;;;13.75;7.78;;;;;;;8.02;79.38;100908.34;5040173;28;20130;-68
2022/04/22 02:01:11;;;;;;;16.88;7.65;;;;;;;7.98;79.29;100905.94;5041469;28;20052;-68
2022/04/22 02:03:38;;;;;;;12.75;7.13;;;;;;;7.94;79.44;100907.06;5039834;28;20144;-68
2022/04/22 02:06:04;;;;;;;12.98;7.93;;;;;;;7.93;79.73;100900.91;5021225;28;20079;-68
2022/04/22 02:08:31;;;;;;;15.27;7.20;;;;;;;7.91;80.30;100902.75;5021855;28;20097;-68
2022/04/22 02:10:56;;;;;;;13.10;7.78;;;;;;;7.86;80.14;100903.94;5039864;28;20101;-68
2022/04/22 02:13:22;;;;;;;12.50;8.25;;;;;;;7.89;79.63;100896.69;5022659;28;20493;-68
2022/04/22 02:15:47;;;;;;;10.45;6.75;;;;;;;7.87;80.35;100903.84;5024119;28;20045;-68
2022/04/22 02:18:13;;;;;;;14.43;7.85;;;;;;;7.92;80.36;100899.16;5044903;28;20048;-68
2022/04/22 02:20:38;;;;;;;15.18;7.68;;;;;;;7.88;80.19;100892.31;5046112;28;20064;-69
2022/04/22 02:23:04;;;;;;;13.80;7.32;;;;;;;7.99;80.37;100895.25;5043883;28;20390;-68
2022/04/22 02:25:29;;;;;;;14.40;6.68;;;;;;;7.91;80.62;100897.44;5040702;28;20067;-68
2022/04/22 02:30:39;;;;;;;15.88;7.60;;;;;;;7.95;81.28;100891.03;5038632;28;20060;-68
2022/04/22 02:33:05;;;;;;;13.88;7.68;;;;;;;8.10;81.25;100896.50;5037843;28;20045;-68
2022/04/22 02:35:30;;;;;;;12.95;7.72;;;;;;;8.21;81.11;100894.13;5037954;28;20559;-67
2022/04/22 02:37:56;;;;;;;14.27;7.82;;;;;;;8.22;81.11;100901.16;5037570;28;20098;-68
2022/04/22 02:45:51;;;;;;;12.15;7.68;;;;;;;8.20;82.54;100901.25;5055701;28;20075;-67
2022/04/22 02:48:17;;;;;;;13.38;8.32;;;;;;;8.17;82.90;100895.22;5058165;28;20435;-68
2022/04/22 02:50:43;;;;;;;14.65;7.20;;;;;;;8.05;83.20;100889.63;5060489;28;20055;-68
2022/04/22 02:53:08;;;;;;;11.88;7.90;;;;;;;8.05;83.61;100891.44;5057378;28;20040;-67
2022/04/22 02:55:38;;;;;;;15.82;8.95;;;;;;;8.10;84.23;100892.03;5056158;28;20715;-66
2022/04/22 02:58:03;;;;;;;13.77;8.45;;;;;;;8.08;84.69;100885.94;5058705;28;20493;-66
2022/04/22 03:00:29;;;;;;;21.67;8.85;;;;;;;8.14;84.63;100884.78;5058836;28;20040;-66
2022/04/22 03:02:54;;;;;;;13.95;8.60;;;;;;;8.08;84.84;100890.38;5058282;28;20040;-65
2022/04/22 03:05:21;;;;;;;17.70;8.90;;;;;;;8.13;85.31;100883.91;5059089;28;20131;-67
2022/04/22 03:07:46;;;;;;;16.75;9.32;;;;;;;8.11;85.27;100887.59;5058608;28;20119;-66
2022/04/22 03:10:12;;;;;;;16.33;9.65;;;;;;;8.07;85.69;100886.88;5040661;28;20047;-67
2022/04/22 03:12:37;;;;;;;16.17;9.50;;;;;;;8.09;86.62;100890.34;5059144;28;20033;-66
2022/04/22 03:15:03;;;;;;;18.00;9.40;;;;;;;8.26;86.16;100879.66;5040803;28;20044;-68
2022/04/22 03:17:29;;;;;;;16.13;9.20;;;;;;;8.12;86.23;100884.84;5040781;28;20080;-66
2022/04/22 03:19:55;;;;;;;16.33;9.63;;;;;;;8.23;86.34;100878.97;5060379;28;20049;-67
2022/04/22 03:22:20;;;;;;;19.23;10.32;;;;;;;8.19;86.97;100882.75;5059656;28;20076;-67
2022/04/22 03:24:47;;;;;;;25.48;11.32;;;;;;;8.10;86.71;100873.44;5060930;28;20044;-67
2022/04/22 03:27:12;;;;;;;18.52;9.30;;;;;;;8.07;87.45;100881.56;5060496;28;20052;-66
2022/04/22 03:29:38;;;;;;;23.52;10.48;;;;;;;8.01;87.36;100881.91;5059184;28;20111;-67
2022/04/22 03:32:05;;;;;;;18.10;10.55;;;;;;;8.02;87.78;100879.16;5057174;28;20973;-66
2022/04/22 03:34:30;;;;;;;18.75;10.45;;;;;;;7.88;87.73;100880.78;5058915;28;20048;-66
2022/04/22 03:36:55;;;;;;;15.95;9.32;;;;;;;7.85;88.19;100875.66;5044393;28;20904;-67
2022/04/22 03:39:21;;;;;;;21.85;11.00;;;;;;;7.86;88.03;100872.06;5058941;28;20040;-66
2022/04/22 03:41:46;;;;;;;20.00;10.75;;;;;;;7.78;88.30;100862.72;5058129;28;20036;-67
2022/04/22 03:44:12;;;;;;;19.30;10.07;;;;;;;7.78;88.27;100867.13;5058759;28;20057;-66
2022/04/22 03:46:37;;;;;;;20.52;11.55;;;;;;;7.74;87.58;100865.59;5040232;28;20037;-67
2022/04/22 03:49:04;;;;;;;20.17;10.15;;;;;;;7.68;88.45;100869.44;5059526;28;20044;-67
2022/04/22 03:51:30;;;;;;;19.88;10.35;;;;;;;7.62;88.36;100866.22;5061978;28;20037;-67
2022/04/22 03:53:56;;;;;;;18.02;10.65;;;;;;;7.50;88.34;100865.03;5061684;28;20037;-68
2022/04/22 03:59:06;;;;;;;21.77;11.13;;;;;;;7.56;89.08;100866.53;5044440;28;20043;-66
2022/04/22 04:01:32;;;;;;;20.35;11.90;;;;;;;7.52;88.78;100873.78;5044909;28;20044;-66
2022/04/22 04:03:58;;;;;;;17.20;10.63;;;;;;;7.44;89.03;100871.53;5061998;28;20045;-66
2022/04/22 04:06:24;;;;;;;17.95;10.63;;;;;;;7.49;89.45;100872.16;5061813;28;20101;-66
2022/04/22 04:17:05;;;;;;;18.17;11.07;;;;;;;7.52;89.01;100866.66;5061503;28;20048;-67
2022/04/22 04:24:59;;;;;;;18.65;10.73;;;;;;;7.57;88.80;100860.28;5061630;28;20112;-66
2022/04/22 04:27:24;;;;;;;23.00;12.48;;;;;;;7.64;88.92;100859.06;5061806;28;20696;-66
2022/04/22 04:29:50;;;;;;;21.95;11.98;;;;;;;7.67;89.44;100864.19;5061669;28;20479;-67
2022/04/22 04:32:17;;;;;;;19.90;10.73;;;;;;;7.71;89.25;100857.78;5061679;28;20036;-67
2022/04/22 04:34:44;;;;;;;17.88;10.77;;;;;;;7.76;89.19;100864.56;5061743;28;20047;-66
2022/04/22 04:37:10;;;;;;;23.38;11.88;;;;;;;7.77;88.83;100863.63;5061608;28;20060;-65
2022/04/22 04:39:35;;;;;;;21.42;11.55;;;;;;;7.84;89.12;100856.22;5061032;28;20191;-65
2022/04/22 04:42:02;;;;;;;22.38;12.00;;;;;;;7.86;88.78;100862.31;5060314;28;20763;-65
2022/04/22 04:44:28;;;;;;;23.17;13.27;;;;;;;7.93;88.85;100854.88;5042407;28;20044;-65
2022/04/22 04:46:54;;;;;;;23.30;12.38;;;;;;;7.89;88.55;100858.66;5060468;28;20055;-65
2022/04/22 04:49:19;;;;;;;22.60;12.48;;;;;;;7.95;89.06;100853.00;5060725;28;20040;-66
2022/04/22 04:51:45;;;;;;;28.50;12.98;;;;;;;7.94;88.53;100861.91;5061368;28;20059;-66
2022/04/22 04:54:10;;;;;;;23.05;13.25;;;;;;;7.93;89.16;100855.75;5061072;28;20055;-66
2022/04/22 04:56:36;;;;;;;22.92;13.52;;;;;;;7.99;88.51;100852.78;5042749;28;20045;-66
2022/04/22 04:59:01;;;;;;;22.90;12.50;;;;;;;7.95;89.10;100847.69;5040015;28;20036;-67
2022/04/22 05:01:27;;;;;;;24.05;13.00;;;;;;;8.07;88.94;100860.31;5060795;28;20044;-66
2022/04/22 05:03:52;;;;;;;27.10;13.90;;;;;;;8.03;88.78;100859.66;5059649;28;20070;-66
2022/04/22 05:06:19;;;;;;;22.00;12.60;;;;;;;8.16;88.35;100853.69;5058131;28;20036;-66
2022/04/22 05:08:45;;;;;;;24.17;13.50;;;;;;;8.27;88.26;100853.94;5061844;28;20044;-61
2022/04/22 05:11:11;;;;;;;28.02;13.63;;;;;;;8.32;88.35;100849.25;5062228;28;20033;-60
2022/04/22 05:13:36;;;;;;;22.85;12.02;;;;;;;8.43;88.14;100854.88;5063104;28;20040;-61
2022/04/22 05:16:02;;;;;;;23.15;13.20;;;;;;;8.46;88.17;100853.84;5062509;28;20075;-60
2022/04/22 05:18:27;;;;;;;29.30;13.52;;;;;;;8.57;87.15;100857.63;5057155;28;21043;-60
2022/04/22 05:20:53;;;;;;;21.80;13.23;;;;;;;8.60;87.27;100850.44;5063111;28;20663;-60
2022/04/22 05:23:18;;;;;;;19.27;11.88;;;;;;;8.65;86.94;100859.03;5055571;28;20087;-61
2022/04/22 05:25:44;;;;;;;22.58;12.75;;;;;;;8.52;86.95;100853.50;5043423;28;20037;-60
2022/04/22 05:28:09;;;;;;;25.67;12.23;;;;;;;8.53;86.98;100847.25;5043031;28;20102;-60
2022/04/22 05:33:18;;;;;;;23.48;12.63;;;;;;;8.55;86.44;100853.34;5044538;28;20076;-62
2022/04/22 05:35:44;;;;;;;20.58;11.13;;;;;;;8.53;86.64;100856.13;5058472;28;20059;-60
2022/04/22 05:38:10;;;;;;;24.70;13.50;;;;;;;8.75;86.07;100852.25;5060702;28;20043;-60
2022/04/22 05:40:37;;;;;;;24.90;13.75;;;;;;;8.81;85.84;100849.25;5045564;28;20049;-62
2022/04/22 05:43:04;;;;;;;24.60;12.85;;;;;;;8.88;85.44;100834.66;5062100;28;20787;-60
2022/04/22 05:45:30;;;;;;;24.10;13.82;;;;;;;8.99;85.29;100850.88;5043427;28;20422;-61
2022/04/22 05:47:56;;;;;;;21.20;12.15;;;;;;;9.03;85.13;100846.22;5060634;28;20052;-61
2022/04/22 05:50:22;;;;;;;25.00;13.82;;;;;;;9.01;85.02;100843.66;5039973;28;20085;-61
2022/04/22 05:52:49;;;;;;;24.48;13.57;;;;;;;9.00;84.73;100839.28;5037270;28;20028;-60
2022/04/22 05:55:17;;;;;;;25.58;13.15;;;;;;;9.25;84.04;100843.22;5057518;28;20037;-60
2022/04/22 05:57:44;;;;;;;20.80;12.77;;;;;;;9.29;83.70;100847.41;5005993;28;20041;-60
2022/04/22 06:00:12;;;;;;;23.08;13.00;;;;;;;9.60;83.46;100846.47;5038905;28;20036;-61
2022/04/22 06:02:42;;;;;;;22.95;13.38;;;;;;;9.60;82.91;100849.13;5059094;28;20420;-60
2022/04/22 06:05:09;;;;;;;24.25;13.23;;;;;;;9.58;82.92;100846.53;5059295;28;20047;-60
2022/04/22 06:07:34;;;;;;;22.88;14.00;;;;;;;9.62;82.35;100847.22;5060506;28;20078;-60
2022/04/22 06:12:45;;;;;;;19.85;11.40;;;;;;;9.82;81.68;100854.88;5061492;28;20089;-61
2022/04/22 06:15:10;;;;;;;24.33;13.27;;;;;;;9.74;81.20;100849.19;5041918;28;20060;-61
2022/04/22 06:17:36;;;;;;;24.02;13.35;;;;;;;10.30;80.33;100852.03;5041352;28;20036;-60
2022/04/22 06:20:02;;;;;;;19.83;12.32;;;;;;;10.53;79.23;100847.91;5059526;28;20098;-60
2022/04/22 06:22:28;;;;;;;21.55;12.23;;;;;;;11.27;77.03;100836.84;5040134;28;20036;-60
2022/04/22 06:24:54;;;;;;;20.20;13.02;;;;;;;11.68;75.05;100843.91;5040353;28;20483;-60
2022/04/22 06:27:27;;;;;;;21.20;13.50;;;;;;;11.61;74.83;100838.13;5058653;28;20083;-61
2022/04/22 06:29:53;;;;;;;;;;;;;;;11.33;75.41;100838.25;5031109;28;20061;-61
2022/04/22 06:32:19;;;;;;;19.83;11.82;;;;;;;11.52;74.63;100848.56;5051841;28;19920;-61
2022/04/22 06:34:45;;;;;;;21.83;12.45;;;;;;;11.57;74.31;100839.28;5058452;28;20056;-61
2022/04/22 06:37:11;;;;;;;19.38;11.82;;;;;;;11.98;73.08;100840.97;5058505;28;20047;-60
2022/04/22 06:47:52;;;;;;;22.77;13.57;;;;;;;11.36;73.71;100841.59;5057788;28;20880;-60
2022/04/22 06:50:19;;;;;;;20.83;12.27;;;;;;;11.32;74.21;100841.91;5039161;28;20048;-62
2022/04/22 06:52:48;;;;;;;19.08;11.95;;;;;;;11.75;73.01;100834.53;5056615;28;20044;-60
2022/04/22 06:55:20;;;;;;;19.10;11.73;;;;;;;12.35;71.77;100828.56;5056883;28;20477;-61
2022/04/22 06:57:50;;;;;;;21.25;11.88;;;;;;;12.46;70.50;100829.63;5053458;28;20064;-60
2022/04/22 07:00:19;;;;;;;22.80;12.23;;;;;;;12.22;70.58;100829.53;5052896;28;20055;-61
2022/04/22 07:02:47;;;;;;;15.88;10.98;;;;;;;12.36;70.02;100830.28;5057653;28;20043;-60
2022/04/22 07:05:13;;;;;;;25.65;12.55;;;;;;;12.19;69.50;100827.94;5057929;28;20048;-60
2022/04/22 07:07:39;;;;;;;17.48;11.35;;;;;;;12.06;70.35;100829.75;5038669;28;20048;-61
2022/04/22 07:10:05;;;;;;;19.33;11.05;;;;;;;12.07;70.13;100826.97;5056764;28;20037;-61
2022/04/22 07:12:32;;;;;;;23.95;12.00;;;;;;;12.53;68.94;100825.53;5038032;28;20063;-61
2022/04/22 07:15:06;;;;;;;21.17;11.10;;;;;;;12.67;68.92;100822.72;5040492;28;20044;-61
2022/04/22 07:17:36;;;;;;;17.33;10.93;;;;;;;12.69;68.07;100818.97;5040915;28;20040;-61
2022/04/22 07:20:09;;;;;;;20.88;11.80;;;;;;;13.05;67.70;100819.94;5059932;28;20044;-61
2022/04/22 07:22:42;;;;;;;20.42;11.65;;;;;;;12.70;68.70;100830.50;5058791;28;20857;-61
2022/04/22 07:25:09;;;;;;;19.25;11.38;;;;;;;13.00;67.35;100811.34;5059048;28;20044;-61
2022/04/22 07:27:38;;;;;;;15.95;10.85;;;;;;;12.15;70.16;100813.09;5062093;28;20039;-62
2022/04/22 07:30:13;;;;;;;19.48;11.85;;;;;;;11.73;69.69;100816.88;5061519;28;20060;-61
2022/04/22 07:32:39;;;;;;;18.35;11.95;;;;;;;12.05;69.59;100818.22;5061404;28;20371;-61
2022/04/22 07:35:08;;;;;;;19.67;11.80;;;;;;;12.13;69.22;100810.50;5043361;28;20593;-61
2022/04/22 07:37:35;;;;;;;20.85;11.43;;;;;;;12.55;68.71;100816.44;5043368;28;20115;-61
2022/04/22 07:40:01;;;;;;;19.63;10.65;;;;;;;12.49;69.40;100816.88;5060413;28;20710;-62
2022/04/22 07:42:28;;;;;;;17.17;11.18;;;;;;;13.19;67.94;100813.53;5061223;28;20036;-61
2022/04/22 07:47:42;;;;;;;16.00;10.93;;;;;;;12.92;68.24;100819.97;5031135;28;20036;-61
2022/04/22 07:50:08;;;;;;;18.15;10.57;;;;;;;12.92;66.88;100817.28;5062737;28;20041;-61
2022/04/22 07:52:34;;;;;;;15.82;10.52;;;;;;;12.37;67.90;100818.63;5062207;28;20377;-60
2022/04/22 07:55:00;;;;;;;17.30;10.93;;;;;;;12.61;67.75;100832.06;5061877;28;20075;-60
2022/04/22 07:57:27;;;;;;;18.85;10.57;;;;;;;12.85;67.51;100826.75;5062234;28;20114;-61
2022/04/22 07:59:52;;;;;;;15.50;9.82;;;;;;;12.94;66.91;100820.69;5056146;28;20051;-60
2022/04/22 08:02:18;;;;;;;18.65;10.52;;;;;;;13.32;65.61;100817.03;5061550;28;20032;-60
2022/04/22 08:04:44;;;;;;;19.65;10.23;;;;;;;14.28;63.42;100810.53;5060140;28;20486;-61
2022/04/22 08:07:09;;;;;;;18.08;10.45;;;;;;;13.83;65.56;100813.16;5042294;28;20040;-60
2022/04/22 08:09:35;;;;;;;17.33;10.93;;;;;;;13.97;64.79;100812.97;5060647;28;20029;-62
2022/04/22 08:12:01;;;;;;;16.00;10.15;;;;;;;13.45;66.57;100812.47;5060822;28;20037;-61
2022/04/22 08:14:27;;;;;;;20.30;11.25;;;;;;;13.55;66.25;100811.75;5060893;28;20091;-60
2022/04/22 08:16:56;;;;;;;19.13;11.05;;;;;;;13.29;66.33;100811.03;5061048;28;20040;-60
2022/04/22 08:19:21;;;;;;;17.33;10.18;;;;;;;12.82;67.13;100810.06;5026612;28;20731;-60
2022/04/22 08:21:47;;;;;;;16.27;9.95;;;;;;;12.76;67.96;100811.34;5061712;28;20036;-61
2022/04/22 08:24:13;;;;;;;18.08;10.48;;;;;;;12.93;67.12;100805.59;5060752;28;20078;-61
2022/04/22 08:26:39;;;;;;;19.23;10.63;;;;;;;13.32;66.33;100805.47;5061883;28;20071;-60
2022/04/22 08:29:04;;;;;;;16.05;10.43;;;;;;;12.85;68.09;100808.00;5060137;28;20416;-62
2022/04/22 08:31:30;;;;;;;18.63;10.23;;;;;;;12.49;68.32;100805.31;5060596;28;20044;-61
2022/04/22 08:33:57;;;;;;;16.05;9.00;;;;;;;12.79;67.49;100812.94;5039399;28;20040;-59
2022/04/22 08:36:32;;;;;;;18.55;10.32;;;;;;;12.94;67.05;100798.44;5060271;28;20112;-59
2022/04/22 08:38:57;;;;;;;18.00;9.90;;;;;;;13.31;66.26;100807.31;5059746;28;20036;-60
2022/04/22 08:41:23;;;;;;;15.80;9.20;;;;;;;13.55;64.72;100791.16;5043459;28;20119;-61
2022/04/22 08:43:53;;;;;;;20.58;9.95;;;;;;;13.96;64.68;100793.34;5060381;28;20051;-61
2022/04/22 08:51:49;;;;;;;16.27;9.18;;;;;;;14.37;62.04;100782.97;5056408;28;20041;-61
2022/04/22 08:54:16;;;;;;;13.93;8.60;;;;;;;13.95;62.71;100801.47;5026756;28;20048;-61
2022/04/22 08:56:43;;;;;;;13.93;9.25;;;;;;;14.06;63.16;100790.78;5059984;28;20045;-61
2022/04/22 08:59:09;;;;;;;12.27;8.32;;;;;;;14.00;62.78;100786.72;5061344;28;20055;-60
2022/04/22 09:01:37;;;;;;;13.43;8.52;;;;;;;13.91;62.68;100784.81;5061031;28;20193;-60
2022/04/22 09:04:03;;;;;;;14.15;8.30;;;;;;;13.62;64.12;100783.53;5037816;28;20505;-61
2022/04/22 09:06:30;;;;;;;10.07;7.40;;;;;;;13.64;64.34;100784.25;5060318;28;20037;-61
2022/04/22 09:08:57;;;;;;;15.15;8.10;;;;;;;13.70;64.73;100781.97;5018999;28;20667;-61
2022/04/22 09:11:23;;;;;;;17.10;9.45;;;;;;;14.00;61.51;100793.94;5058271;28;20041;-61
2022/04/22 09:13:49;;;;;;;11.23;6.70;;;;;;;13.30;64.79;100786.81;5059442;28;20300;-61
2022/04/22 09:16:22;;;;;;;11.85;7.72;;;;;;;13.56;62.91;100782.19;5041527;28;20044;-62
2022/04/22 09:18:57;;;;;;;14.27;8.68;;;;;;;13.51;62.85;100773.63;5060980;28;20043;-60
2022/04/22 09:21:24;;;;;;;18.75;8.80;;;;;;;14.22;63.80;100764.47;5042741;28;20048;-61
2022/04/22 09:23:50;;;;;;;14.43;8.18;;;;;;;13.71;64.18;100766.75;5060595;28;20071;-60
2022/04/22 09:26:26;;;;;;;10.55;7.20;;;;;;;13.84;63.27;100762.13;5059826;28;20401;-60
2022/04/22 09:28:57;;;;;;;16.50;8.13;;;;;;;14.14;62.21;100755.31;5041094;28;20109;-60
2022/04/22 09:31:23;;;;;;;11.25;7.55;;;;;;;14.76;61.92;100755.63;5059036;28;20044;-60
2022/04/22 09:33:50;;;;;;;9.27;6.70;;;;;;;14.50;59.34;100746.16;5042134;28;20040;-60
2022/04/22 09:44:57;;;;;;;9.88;6.28;;;;;;;14.64;61.77;100745.03;4998735;28;20068;-61
2022/04/22 09:47:32;;;;;;;10.52;6.25;;;;;;;14.57;61.48;100750.06;4997464;28;20919;-61
2022/04/22 09:50:11;;;;;;;12.00;7.28;;;;;;;14.45;59.98;100735.75;4998019;28;20057;-62
2022/04/22 09:52:46;;;;;;;7.82;5.95;;;;;;;14.62;58.19;100739.81;4981463;28;20097;-61
2022/04/22 09:55:16;;;;;;;9.75;6.35;;;;;;;15.72;57.94;100745.78;4998324;28;20532;-60
2022/04/22 09:57:58;;;;;;;9.10;6.15;;;;;;;15.60;57.96;100734.22;5017018;28;20053;-60
2022/04/22 10:00:29;;;;;;;9.85;6.50;;;;;;;14.85;59.13;100731.66;5016517;28;20144;-61
2022/04/22 10:02:55;;;;;;;10.52;6.30;;;;;;;15.46;58.11;100740.81;5016771;28;20398;-60
2022/04/22 10:05:26;;;;;;;11.57;6.10;;;;;;;14.78;59.37;100736.69;5016190;28;20816;-61
2022/04/22 10:07:56;;;;;;;12.48;7.38;;;;;;;15.07;59.71;100725.38;5016200;28;20041;-60
2022/04/22 10:10:30;;;;;;;9.40;6.47;;;;;;;14.66;61.21;100719.78;5015002;28;20509;-60
2022/04/22 10:12:57;;;;;;;13.18;6.90;;;;;;;14.86;59.57;100717.25;5015395;28;20060;-60
2022/04/22 10:15:27;;;;;;;9.88;6.25;;;;;;;15.06;59.73;100715.59;5031313;28;20053;-60
2022/04/22 10:17:53;;;;;;;9.85;6.40;;;;;;;15.36;57.66;100709.44;5037527;28;20413;-60
2022/04/22 10:20:19;;;;;;;11.60;6.50;;;;;;;15.32;57.26;100713.41;5037442;28;20033;-60
2022/04/22 10:22:49;;;;;;;10.02;7.30;;;;;;;15.10;58.08;100704.47;5043432;28;20123;-60
2022/04/22 10:25:15;;;;;;;9.77;6.78;;;;;;;15.38;58.36;100699.44;5057583;28;20625;-59
2022/04/22 10:27:42;;;;;;;11.50;6.32;;;;;;;14.73;58.06;100698.66;5056115;28;20909;-60
2022/04/22 10:30:11;;;;;;;10.05;6.65;;;;;;;16.39;56.13;100691.41;5058664;28;20485;-61
2022/04/22 10:32:39;;;;;;;8.18;6.05;;;;;;;16.18;55.25;100696.88;5057951;28;20075;-61
2022/04/22 10:35:05;;;;;;;9.05;6.15;;;;;;;16.00;56.82;100690.44;5039524;28;20048;-60
2022/04/22 10:37:33;;;;;;;11.52;6.53;;;;;;;15.50;57.49;100701.06;5056510;28;20040;-61
2022/04/22 10:40:01;;;;;;;8.90;5.85;;;;;;;15.73;56.37;100683.81;5056345;28;20186;-61
2022/04/22 10:42:32;;;;;;;8.63;5.95;;;;;;;16.07;56.09;100686.22;5056429;28;20055;-60
2022/04/22 10:47:47;;;;;;;7.00;5.47;;;;;;;16.43;55.79;100676.69;5056261;28;20043;-61
2022/04/22 10:50:26;;;;;;;10.52;5.45;;;;;;;16.18;55.29;100675.34;5057876;28;20075;-61
2022/04/22 10:53:02;;;;;;;7.70;4.93;;;;;;;16.08;53.87;100677.16;5056617;28;20040;-61
2022/04/22 10:55:36;;;;;;;10.00;5.15;;;;;;;16.00;54.49;100680.53;5039209;28;20052;-61
2022/04/22 10:58:17;;;;;;;11.50;5.63;;;;;;;15.54;56.92;100679.16;5057213;28;20037;-60
2022/04/22 11:00:44;;;;;;;7.75;5.30;;;;;;;15.13;54.96;100679.19;5060127;28;20044;-61
2022/04/22 11:03:15;;;;;;;8.77;4.75;;;;;;;15.44;54.74;100682.78;5061009;28;20373;-60
2022/04/22 11:05:50;;;;;;;8.55;5.25;;;;;;;15.78;53.32;100670.81;5060888;28;20048;-61
2022/04/22 11:08:25;;;;;;;6.85;5.28;;;;;;;16.09;53.15;100669.94;5060328;28;20064;-60
2022/04/22 11:10:51;;;;;;;6.65;4.63;;;;;;;16.55;52.33;100664.78;5060722;28;20066;-65
2022/04/22 11:13:50;;;;;;;6.65;4.53;;;;;;;15.97;54.44;100672.75;5062200;28;20500;-67
2022/04/22 11:16:23;;;;;;;8.82;5.22;;;;;;;15.61;53.86;100671.41;5057490;28;20100;-66
2022/04/22 11:19:19;;;;;;;7.70;4.97;;;;;;;15.75;52.32;100676.47;5031192;28;20052;-66
2022/04/22 11:21:46;;;;;;;7.03;5.00;;;;;;;15.14;52.53;100676.38;5061346;28;20031;-65
2022/04/22 11:24:19;;;;;;;8.57;4.25;;;;;;;15.69;51.36;100668.09;5062306;28;20040;-66
2022/04/22 11:26:45;;;;;;;6.47;4.57;;;;;;;16.01;52.51;100671.50;5060396;28;20458;-65
2022/04/22 11:29:12;;;;;;;6.22;4.55;;;;;;;15.53;52.46;100672.09;5049743;28;20055;-66
2022/04/22 11:31:38;;;;;;;6.43;4.65;;;;;;;15.21;52.28;100677.56;5038812;28;20151;-65
2022/04/22 11:34:07;;;;;;;5.55;4.38;;;;;;;15.39;52.58;100677.78;5058981;28;20081;-66
2022/04/22 11:36:47;;;;;;;7.30;4.63;;;;;;;15.23;52.55;100664.00;5040750;28;20531;-67
2022/04/22 11:39:22;;;;;;;6.38;4.65;;;;;;;15.47;52.47;100656.50;5041274;28;20051;-67
2022/04/22 11:41:57;;;;;;;7.82;4.60;;;;;;;15.47;51.44;100659.19;5054372;28;20036;-66
2022/04/22 11:44:27;;;;;;;9.95;4.63;;;;;;;15.52;51.15;100658.78;5052572;28;20074;-66
2022/04/22 11:46:52;;;;;;;5.35;4.75;;;;;;;15.35;52.16;100670.97;5058035;28;20066;-66
2022/04/22 11:49:19;;;;;;;6.07;4.22;;;;;;;15.38;52.51;100651.06;5057558;28;20048;-66
2022/04/22 11:51:45;;;;;;;6.97;4.53;;;;;;;15.28;51.88;100662.59;5056774;28;20041;-65
2022/04/22 11:54:10;;;;;;;10.82;4.93;;;;;;;15.49;51.40;100654.50;5055948;28;20405;-66
2022/04/22 11:56:36;;;;;;;5.80;4.68;;;;;;;15.57;51.72;100661.94;5057378;28;20036;-65
2022/04/22 11:59:02;;;;;;;8.02;4.78;;;;;;;15.62;50.31;100658.84;5039362;28;20033;-65
2022/04/22 12:08:00;;;;;;;7.78;4.75;;;;;;;16.31;50.18;100635.59;5056614;28;21192;-66
2022/04/22 12:10:00;;;;;;;7.85;5.25;;;;;;;16.81;50.16;100621.19;5056140;28;20456;-65
2022/04/22 12:12:32;;;;;;;10.32;5.82;;;;;;;17.02;51.38;100621.03;5054103;28;20036;-68
2022/04/22 12:15:02;;;;;;;7.00;4.57;;;;;;;16.94;49.11;100618.19;5056711;28;20397;-65
2022/04/22 12:17:28;;;;;;;9.90;5.15;;;;;;;17.13;48.49;100606.53;5039077;28;20542;-65
2022/04/22 12:19:53;;;;;;;5.43;4.53;;;;;;;17.09;48.29;100595.19;5057323;28;20025;-66
2022/04/22 12:22:20;;;;;;;8.43;5.43;;;;;;;17.30;50.02;100612.00;5058245;28;20674;-66
2022/04/22 12:25:23;;;;;;;8.57;5.35;;;;;;;16.26;49.08;100602.00;5023315;28;20040;-68
2022/04/22 12:28:09;;;;;;;7.65;5.22;;;;;;;16.73;48.04;100600.34;5056191;28;20656;-66
2022/04/22 12:30:44;;;;;;;8.00;4.60;;;;;;;16.80;46.77;100598.78;5033308;28;20040;-66
2022/04/22 12:33:20;;;;;;;7.45;4.50;;;;;;;16.69;48.04;100598.06;5056571;28;20069;-66